sensor_id;sensor_type;location;lat;lon;timestamp;temperature;humidity
74822;DHT22;63353;48.702;8.884;2022-12-24T00:00:16;9.00;99.90
74822;DHT22;63353;48.702;8.884;2022-12-24T00:02:45;9.20;99.90
74822;DHT22;63353;48.702;8.884;2022-12-24T00:05:11;9.10;99.90
74822;DHT22;63353;48.702;8.884;2022-12-24T00:07:40;9.10;99.90
74822;DHT22;63353;48.702;8.884;2022-12-24T00:10:21;9.30;99.90
74822;DHT22;63353;48.702;8.884;2022-12-24T00:12:46;9.20;99.90
74822;DHT22;63353;48.702;8.884;2022-12-24T00:15:12;9.20;99.90
74822;DHT22;63353;48.702;8.884;2022-12-24T00:17:37;9.30;99.90
74822;DHT22;63353;48.702;8.884;2022-12-24T00:20:07;9.30;99.90
74822;DHT22;63353;48.702;8.884;2022-12-24T00:22:38;9.40;99.90
74822;DHT22;63353;48.702;8.884;2022-12-24T00:25:13;9.40;99.90
74822;DHT22;63353;48.702;8.884;2022-12-24T00:27:44;9.40;99.90
74822;DHT22;63353;48.702;8.884;2022-12-24T00:30:10;9.40;99.90
74822;DHT22;63353;48.702;8.884;2022-12-24T00:32:39;9.50;99.90
74822;DHT22;63353;48.702;8.884;2022-12-24T00:35:11;9.40;99.90
74822;DHT22;63353;48.702;8.884;2022-12-24T00:37:40;9.20;99.90
74822;DHT22;63353;48.702;8.884;2022-12-24T00:40:15;9.20;99.90
74822;DHT22;63353;48.702;8.884;2022-12-24T00:42:44;9.10;99.90
74822;DHT22;63353;48.702;8.884;2022-12-24T00:45:13;8.90;99.90
74822;DHT22;63353;48.702;8.884;2022-12-24T00:47:42;8.80;99.90
74822;DHT22;63353;48.702;8.884;2022-12-24T00:50:14;8.70;99.90
74822;DHT22;63353;48.702;8.884;2022-12-24T00:52:49;8.70;99.90
74822;DHT22;63353;48.702;8.884;2022-12-24T00:55:20;8.70;99.90
74822;DHT22;63353;48.702;8.884;2022-12-24T00:57:46;8.60;99.90
74822;DHT22;63353;48.702;8.884;2022-12-24T01:00:11;8.70;99.90
74822;DHT22;63353;48.702;8.884;2022-12-24T01:02:40;8.70;99.90
74822;DHT22;63353;48.702;8.884;2022-12-24T01:05:27;8.60;99.90
74822;DHT22;63353;48.702;8.884;2022-12-24T01:07:56;8.40;99.90
74822;DHT22;63353;48.702;8.884;2022-12-24T01:10:33;8.20;99.90
74822;DHT22;63353;48.702;8.884;2022-12-24T01:13:02;8.20;99.90
74822;DHT22;63353;48.702;8.884;2022-12-24T01:15:37;8.20;99.90
74822;DHT22;63353;48.702;8.884;2022-12-24T01:18:06;8.30;99.90
74822;DHT22;63353;48.702;8.884;2022-12-24T01:20:35;8.30;99.90
74822;DHT22;63353;48.702;8.884;2022-12-24T01:23:00;8.30;99.90
74822;DHT22;63353;48.702;8.884;2022-12-24T01:25:29;8.40;99.90
74822;DHT22;63353;48.702;8.884;2022-12-24T01:28:00;8.50;99.90
74822;DHT22;63353;48.702;8.884;2022-12-24T01:30:26;8.60;99.90
74822;DHT22;63353;48.702;8.884;2022-12-24T01:32:55;8.70;99.90
74822;DHT22;63353;48.702;8.884;2022-12-24T01:35:30;8.80;99.90
74822;DHT22;63353;48.702;8.884;2022-12-24T01:37:58;8.90;99.90
74822;DHT22;63353;48.702;8.884;2022-12-24T01:40:25;8.90;99.90
74822;DHT22;63353;48.702;8.884;2022-12-24T01:43:19;9.00;99.90
74822;DHT22;63353;48.702;8.884;2022-12-24T01:46:01;8.90;99.90
74822;DHT22;63353;48.702;8.884;2022-12-24T01:48:50;8.90;99.90
74822;DHT22;63353;48.702;8.884;2022-12-24T01:51:36;8.90;99.90
74822;DHT22;63353;48.702;8.884;2022-12-24T01:54:32;8.90;99.90
74822;DHT22;63353;48.702;8.884;2022-12-24T01:57:06;8.90;99.90
74822;DHT22;63353;48.702;8.884;2022-12-24T01:59:37;8.90;99.90
74822;DHT22;63353;48.702;8.884;2022-12-24T02:02:07;8.90;99.90
74822;DHT22;63353;48.702;8.884;2022-12-24T02:04:39;8.80;99.90
74822;DHT22;63353;48.702;8.884;2022-12-24T02:07:13;8.70;99.90
74822;DHT22;63353;48.702;8.884;2022-12-24T02:09:38;8.70;99.90
74822;DHT22;63353;48.702;8.884;2022-12-24T02:12:16;8.60;99.90
74822;DHT22;63353;48.702;8.884;2022-12-24T02:14:42;8.50;99.90
74822;DHT22;63353;48.702;8.884;2022-12-24T02:36:43;8.70;99.90
74822;DHT22;63353;48.702;8.884;2022-12-24T02:42:28;8.90;99.90
74822;DHT22;63353;48.702;8.884;2022-12-24T02:47:32;8.70;99.90
74822;DHT22;63353;48.702;8.884;2022-12-24T02:50:01;8.70;99.90
74822;DHT22;63353;48.702;8.884;2022-12-24T02:52:31;8.70;99.90
74822;DHT22;63353;48.702;8.884;2022-12-24T02:55:20;8.80;99.90
74822;DHT22;63353;48.702;8.884;2022-12-24T02:58:08;8.80;99.90
74822;DHT22;63353;48.702;8.884;2022-12-24T03:01:04;8.70;99.90
74822;DHT22;63353;48.702;8.884;2022-12-24T03:06:44;8.70;99.90
74822;DHT22;63353;48.702;8.884;2022-12-24T03:09:25;8.60;99.90
74822;DHT22;63353;48.702;8.884;2022-12-24T03:12:05;8.60;99.90
74822;DHT22;63353;48.702;8.884;2022-12-24T03:14:32;8.50;99.90
74822;DHT22;63353;48.702;8.884;2022-12-24T03:17:02;8.50;99.90
74822;DHT22;63353;48.702;8.884;2022-12-24T03:19:29;8.50;99.90
74822;DHT22;63353;48.702;8.884;2022-12-24T03:22:03;8.40;99.90
74822;DHT22;63353;48.702;8.884;2022-12-24T03:24:31;8.50;99.90
74822;DHT22;63353;48.702;8.884;2022-12-24T03:27:01;8.50;99.90
74822;DHT22;63353;48.702;8.884;2022-12-24T03:29:38;8.50;99.90
74822;DHT22;63353;48.702;8.884;2022-12-24T03:32:09;8.50;99.90
74822;DHT22;63353;48.702;8.884;2022-12-24T03:34:38;8.40;99.90
74822;DHT22;63353;48.702;8.884;2022-12-24T03:37:07;8.40;99.90
74822;DHT22;63353;48.702;8.884;2022-12-24T03:39:32;8.30;99.90
74822;DHT22;63353;48.702;8.884;2022-12-24T03:42:13;8.30;99.90
74822;DHT22;63353;48.702;8.884;2022-12-24T03:44:39;8.30;99.90
74822;DHT22;63353;48.702;8.884;2022-12-24T03:47:11;8.20;99.90
74822;DHT22;63353;48.702;8.884;2022-12-24T03:49:42;8.30;99.90
74822;DHT22;63353;48.702;8.884;2022-12-24T03:52:08;8.30;99.90
74822;DHT22;63353;48.702;8.884;2022-12-24T03:54:34;8.20;99.90
74822;DHT22;63353;48.702;8.884;2022-12-24T03:56:59;8.20;99.90
74822;DHT22;63353;48.702;8.884;2022-12-24T03:59:25;8.30;99.90
74822;DHT22;63353;48.702;8.884;2022-12-24T04:01:55;8.20;99.90
74822;DHT22;63353;48.702;8.884;2022-12-24T04:04:20;8.10;99.90
74822;DHT22;63353;48.702;8.884;2022-12-24T04:06:46;8.20;99.90
74822;DHT22;63353;48.702;8.884;2022-12-24T04:09:12;8.20;99.90
74822;DHT22;63353;48.702;8.884;2022-12-24T04:11:37;8.30;99.90
74822;DHT22;63353;48.702;8.884;2022-12-24T04:14:03;8.30;99.90
74822;DHT22;63353;48.702;8.884;2022-12-24T04:16:29;8.20;99.90
74822;DHT22;63353;48.702;8.884;2022-12-24T04:18:55;8.30;99.90
74822;DHT22;63353;48.702;8.884;2022-12-24T04:21:42;8.20;99.90
74822;DHT22;63353;48.702;8.884;2022-12-24T04:24:10;8.20;99.90
74822;DHT22;63353;48.702;8.884;2022-12-24T04:26:45;8.30;99.90
74822;DHT22;63353;48.702;8.884;2022-12-24T04:29:13;8.30;99.90
74822;DHT22;63353;48.702;8.884;2022-12-24T04:31:42;8.20;99.90
74822;DHT22;63353;48.702;8.884;2022-12-24T04:34:08;8.30;99.90
74822;DHT22;63353;48.702;8.884;2022-12-24T04:36:33;8.30;99.90
74822;DHT22;63353;48.702;8.884;2022-12-24T04:39:17;8.30;99.90
74822;DHT22;63353;48.702;8.884;2022-12-24T04:41:43;8.20;99.90
74822;DHT22;63353;48.702;8.884;2022-12-24T04:44:09;8.20;99.90
74822;DHT22;63353;48.702;8.884;2022-12-24T04:46:53;8.20;99.90
74822;DHT22;63353;48.702;8.884;2022-12-24T04:49:18;8.10;99.90
74822;DHT22;63353;48.702;8.884;2022-12-24T04:51:51;8.10;99.90
74822;DHT22;63353;48.702;8.884;2022-12-24T04:54:20;8.00;99.90
74822;DHT22;63353;48.702;8.884;2022-12-24T04:56:46;8.00;99.90
74822;DHT22;63353;48.702;8.884;2022-12-24T04:59:14;8.00;99.90
74822;DHT22;63353;48.702;8.884;2022-12-24T05:01:43;8.00;99.90
74822;DHT22;63353;48.702;8.884;2022-12-24T05:04:09;8.10;99.90
74822;DHT22;63353;48.702;8.884;2022-12-24T05:06:35;8.10;99.90
74822;DHT22;63353;48.702;8.884;2022-12-24T05:09:01;8.00;99.90
74822;DHT22;63353;48.702;8.884;2022-12-24T05:11:27;8.00;99.90
74822;DHT22;63353;48.702;8.884;2022-12-24T05:13:52;8.00;99.90
74822;DHT22;63353;48.702;8.884;2022-12-24T05:16:24;8.00;99.90
74822;DHT22;63353;48.702;8.884;2022-12-24T05:18:53;8.00;99.90
74822;DHT22;63353;48.702;8.884;2022-12-24T05:21:23;8.00;99.90
74822;DHT22;63353;48.702;8.884;2022-12-24T05:23:50;7.90;99.90
74822;DHT22;63353;48.702;8.884;2022-12-24T05:27:10;7.80;99.90
74822;DHT22;63353;48.702;8.884;2022-12-24T05:29:32;7.70;99.90
74822;DHT22;63353;48.702;8.884;2022-12-24T05:31:57;7.60;99.90
74822;DHT22;63353;48.702;8.884;2022-12-24T05:34:25;7.60;99.90
74822;DHT22;63353;48.702;8.884;2022-12-24T05:36:57;7.60;99.90
74822;DHT22;63353;48.702;8.884;2022-12-24T05:39:22;7.50;99.90
74822;DHT22;63353;48.702;8.884;2022-12-24T05:42:00;7.40;99.90
74822;DHT22;63353;48.702;8.884;2022-12-24T05:44:26;7.30;99.90
74822;DHT22;63353;48.702;8.884;2022-12-24T05:47:01;7.10;99.90
74822;DHT22;63353;48.702;8.884;2022-12-24T05:49:29;7.00;99.90
74822;DHT22;63353;48.702;8.884;2022-12-24T05:51:55;7.20;99.90
74822;DHT22;63353;48.702;8.884;2022-12-24T05:54:39;7.20;99.90
74822;DHT22;63353;48.702;8.884;2022-12-24T05:57:15;7.30;99.90
74822;DHT22;63353;48.702;8.884;2022-12-24T05:59:41;7.20;99.90
74822;DHT22;63353;48.702;8.884;2022-12-24T06:02:12;7.00;99.90
74822;DHT22;63353;48.702;8.884;2022-12-24T06:04:44;6.80;99.90
74822;DHT22;63353;48.702;8.884;2022-12-24T06:07:12;6.80;99.90
74822;DHT22;63353;48.702;8.884;2022-12-24T06:09:41;6.70;99.90
74822;DHT22;63353;48.702;8.884;2022-12-24T06:12:07;6.70;99.90
74822;DHT22;63353;48.702;8.884;2022-12-24T06:14:32;6.60;99.90
74822;DHT22;63353;48.702;8.884;2022-12-24T06:17:01;6.60;99.90
74822;DHT22;63353;48.702;8.884;2022-12-24T06:19:26;6.70;99.90
74822;DHT22;63353;48.702;8.884;2022-12-24T06:21:53;6.70;99.90
74822;DHT22;63353;48.702;8.884;2022-12-24T06:24:22;6.60;99.90
74822;DHT22;63353;48.702;8.884;2022-12-24T06:26:48;6.60;99.90
74822;DHT22;63353;48.702;8.884;2022-12-24T06:29:22;6.50;99.90
74822;DHT22;63353;48.702;8.884;2022-12-24T06:31:54;6.40;99.90
74822;DHT22;63353;48.702;8.884;2022-12-24T06:34:19;6.40;99.90
74822;DHT22;63353;48.702;8.884;2022-12-24T06:36:51;6.50;99.90
74822;DHT22;63353;48.702;8.884;2022-12-24T06:39:20;6.70;99.90
74822;DHT22;63353;48.702;8.884;2022-12-24T06:41:54;6.70;99.90
74822;DHT22;63353;48.702;8.884;2022-12-24T06:44:20;6.70;99.90
74822;DHT22;63353;48.702;8.884;2022-12-24T06:46:58;6.70;99.90
74822;DHT22;63353;48.702;8.884;2022-12-24T06:49:29;6.80;99.90
74822;DHT22;63353;48.702;8.884;2022-12-24T06:51:58;6.90;99.90
74822;DHT22;63353;48.702;8.884;2022-12-24T06:54:27;6.80;99.90
74822;DHT22;63353;48.702;8.884;2022-12-24T06:57:02;6.80;99.90
74822;DHT22;63353;48.702;8.884;2022-12-24T06:59:31;6.70;99.90
74822;DHT22;63353;48.702;8.884;2022-12-24T07:01:59;6.70;99.90
74822;DHT22;63353;48.702;8.884;2022-12-24T07:04:25;6.60;99.90
74822;DHT22;63353;48.702;8.884;2022-12-24T07:06:53;6.50;99.90
74822;DHT22;63353;48.702;8.884;2022-12-24T07:09:22;6.50;99.90
74822;DHT22;63353;48.702;8.884;2022-12-24T07:11:48;6.40;99.90
74822;DHT22;63353;48.702;8.884;2022-12-24T07:14:13;6.40;99.90
74822;DHT22;63353;48.702;8.884;2022-12-24T07:16:51;6.30;99.90
74822;DHT22;63353;48.702;8.884;2022-12-24T07:19:20;6.30;99.90
74822;DHT22;63353;48.702;8.884;2022-12-24T07:21:52;6.20;99.90
74822;DHT22;63353;48.702;8.884;2022-12-24T07:24:27;6.20;99.90
74822;DHT22;63353;48.702;8.884;2022-12-24T07:27:08;6.10;99.90
74822;DHT22;63353;48.702;8.884;2022-12-24T07:29:33;6.00;99.90
74822;DHT22;63353;48.702;8.884;2022-12-24T07:32:02;5.90;99.90
74822;DHT22;63353;48.702;8.884;2022-12-24T07:34:28;5.80;99.90
74822;DHT22;63353;48.702;8.884;2022-12-24T07:37:11;5.80;99.90
74822;DHT22;63353;48.702;8.884;2022-12-24T07:39:37;5.80;99.90
74822;DHT22;63353;48.702;8.884;2022-12-24T07:42:03;5.70;99.90
74822;DHT22;63353;48.702;8.884;2022-12-24T07:44:32;5.80;99.90
74822;DHT22;63353;48.702;8.884;2022-12-24T07:46:58;5.90;99.90
74822;DHT22;63353;48.702;8.884;2022-12-24T07:49:23;6.10;99.90
74822;DHT22;63353;48.702;8.884;2022-12-24T07:51:49;6.30;99.90
74822;DHT22;63353;48.702;8.884;2022-12-24T07:54:14;6.50;99.90
74822;DHT22;63353;48.702;8.884;2022-12-24T07:56:41;6.70;99.90
74822;DHT22;63353;48.702;8.884;2022-12-24T07:59:08;6.90;99.90
74822;DHT22;63353;48.702;8.884;2022-12-24T08:01:37;7.30;99.90
74822;DHT22;63353;48.702;8.884;2022-12-24T08:04:03;7.50;99.90
74822;DHT22;63353;48.702;8.884;2022-12-24T08:06:40;7.60;99.90
74822;DHT22;63353;48.702;8.884;2022-12-24T08:09:06;7.70;99.90
74822;DHT22;63353;48.702;8.884;2022-12-24T08:11:35;8.00;99.90
74822;DHT22;63353;48.702;8.884;2022-12-24T08:14:00;8.20;99.90
74822;DHT22;63353;48.702;8.884;2022-12-24T08:16:26;8.30;99.90
74822;DHT22;63353;48.702;8.884;2022-12-24T08:18:55;8.50;99.90
74822;DHT22;63353;48.702;8.884;2022-12-24T08:21:23;8.50;99.90
74822;DHT22;63353;48.702;8.884;2022-12-24T08:23:52;8.50;99.90
74822;DHT22;63353;48.702;8.884;2022-12-24T08:26:23;8.50;99.90
74822;DHT22;63353;48.702;8.884;2022-12-24T08:28:55;8.40;99.90
74822;DHT22;63353;48.702;8.884;2022-12-24T08:31:26;8.50;99.90
74822;DHT22;63353;48.702;8.884;2022-12-24T08:33:52;8.50;99.90
74822;DHT22;63353;48.702;8.884;2022-12-24T08:36:18;8.50;99.90
74822;DHT22;63353;48.702;8.884;2022-12-24T08:38:43;8.40;99.90
74822;DHT22;63353;48.702;8.884;2022-12-24T08:41:09;8.50;99.90
74822;DHT22;63353;48.702;8.884;2022-12-24T08:43:35;8.50;99.90
74822;DHT22;63353;48.702;8.884;2022-12-24T08:46:08;8.50;99.90
74822;DHT22;63353;48.702;8.884;2022-12-24T08:48:36;8.50;99.90
74822;DHT22;63353;48.702;8.884;2022-12-24T08:51:25;8.40;99.90
74822;DHT22;63353;48.702;8.884;2022-12-24T08:53:54;8.40;99.90
74822;DHT22;63353;48.702;8.884;2022-12-24T08:56:25;8.40;99.90
74822;DHT22;63353;48.702;8.884;2022-12-24T08:59:00;8.40;99.90
74822;DHT22;63353;48.702;8.884;2022-12-24T09:01:32;8.50;99.90
74822;DHT22;63353;48.702;8.884;2022-12-24T09:04:01;8.50;99.90
74822;DHT22;63353;48.702;8.884;2022-12-24T09:06:30;8.60;99.90
74822;DHT22;63353;48.702;8.884;2022-12-24T09:09:03;8.70;99.90
74822;DHT22;63353;48.702;8.884;2022-12-24T09:11:33;8.70;99.90
74822;DHT22;63353;48.702;8.884;2022-12-24T09:13:59;8.80;99.90
74822;DHT22;63353;48.702;8.884;2022-12-24T09:16:24;8.90;99.90
74822;DHT22;63353;48.702;8.884;2022-12-24T09:18:56;8.90;99.90
74822;DHT22;63353;48.702;8.884;2022-12-24T09:21:22;8.90;99.90
74822;DHT22;63353;48.702;8.884;2022-12-24T09:23:51;8.90;99.90
74822;DHT22;63353;48.702;8.884;2022-12-24T09:26:20;9.10;99.90
74822;DHT22;63353;48.702;8.884;2022-12-24T09:33:57;9.10;99.90
74822;DHT22;63353;48.702;8.884;2022-12-24T09:36:32;9.00;99.90
74822;DHT22;63353;48.702;8.884;2022-12-24T09:38:58;8.90;99.90
74822;DHT22;63353;48.702;8.884;2022-12-24T09:44:32;8.70;99.90
74822;DHT22;63353;48.702;8.884;2022-12-24T09:47:02;8.60;99.90
74822;DHT22;63353;48.702;8.884;2022-12-24T09:49:38;8.50;99.90
74822;DHT22;63353;48.702;8.884;2022-12-24T09:52:14;8.40;99.90
74822;DHT22;63353;48.702;8.884;2022-12-24T09:54:48;8.30;99.90
74822;DHT22;63353;48.702;8.884;2022-12-24T09:57:27;8.30;99.90
74822;DHT22;63353;48.702;8.884;2022-12-24T09:59:54;8.30;99.90
74822;DHT22;63353;48.702;8.884;2022-12-24T10:02:20;8.40;99.90
74822;DHT22;63353;48.702;8.884;2022-12-24T10:04:49;9.00;99.90
74822;DHT22;63353;48.702;8.884;2022-12-24T10:07:47;9.50;99.90
74822;DHT22;63353;48.702;8.884;2022-12-24T10:10:42;9.80;99.90
74822;DHT22;63353;48.702;8.884;2022-12-24T10:19:02;9.80;99.90
74822;DHT22;63353;48.702;8.884;2022-12-24T10:27:38;9.80;99.90
74822;DHT22;63353;48.702;8.884;2022-12-24T10:30:15;9.90;99.90
74822;DHT22;63353;48.702;8.884;2022-12-24T10:32:41;10.00;99.90
74822;DHT22;63353;48.702;8.884;2022-12-24T10:37:49;9.90;99.90
74822;DHT22;63353;48.702;8.884;2022-12-24T10:40:27;9.80;99.90
74822;DHT22;63353;48.702;8.884;2022-12-24T10:42:55;9.90;99.90
74822;DHT22;63353;48.702;8.884;2022-12-24T10:45:22;10.00;99.90
74822;DHT22;63353;48.702;8.884;2022-12-24T10:47:53;9.90;99.90
74822;DHT22;63353;48.702;8.884;2022-12-24T10:52:59;9.90;99.90
74822;DHT22;63353;48.702;8.884;2022-12-24T10:55:31;10.00;99.90
74822;DHT22;63353;48.702;8.884;2022-12-24T10:58:03;10.00;99.90
74822;DHT22;63353;48.702;8.884;2022-12-24T11:00:32;10.00;99.90
74822;DHT22;63353;48.702;8.884;2022-12-24T11:03:19;10.00;99.90
74822;DHT22;63353;48.702;8.884;2022-12-24T11:05:59;10.10;99.90
74822;DHT22;63353;48.702;8.884;2022-12-24T11:08:24;10.20;99.90
74822;DHT22;63353;48.702;8.884;2022-12-24T11:11:05;10.10;99.90
74822;DHT22;63353;48.702;8.884;2022-12-24T11:16:19;10.20;99.90
74822;DHT22;63353;48.702;8.884;2022-12-24T11:18:50;10.00;99.90
74822;DHT22;63353;48.702;8.884;2022-12-24T11:21:28;10.00;99.90
74822;DHT22;63353;48.702;8.884;2022-12-24T11:24:04;10.10;99.90
74822;DHT22;63353;48.702;8.884;2022-12-24T11:26:35;10.20;99.90
74822;DHT22;63353;48.702;8.884;2022-12-24T11:29:25;10.20;99.90
74822;DHT22;63353;48.702;8.884;2022-12-24T11:32:15;10.20;99.90
74822;DHT22;63353;48.702;8.884;2022-12-24T11:34:42;10.30;99.90
74822;DHT22;63353;48.702;8.884;2022-12-24T11:37:17;10.20;99.90
74822;DHT22;63353;48.702;8.884;2022-12-24T11:39:58;10.30;99.90
74822;DHT22;63353;48.702;8.884;2022-12-24T11:42:32;10.40;99.90
74822;DHT22;63353;48.702;8.884;2022-12-24T11:45:01;10.40;99.90
74822;DHT22;63353;48.702;8.884;2022-12-24T11:47:40;10.40;99.90
74822;DHT22;63353;48.702;8.884;2022-12-24T11:50:29;10.60;99.90
74822;DHT22;63353;48.702;8.884;2022-12-24T11:55:48;11.00;99.90
74822;DHT22;63353;48.702;8.884;2022-12-24T11:58:24;11.10;99.90
74822;DHT22;63353;48.702;8.884;2022-12-24T12:03:49;11.30;99.90
74822;DHT22;63353;48.702;8.884;2022-12-24T12:06:46;11.20;99.90
74822;DHT22;63353;48.702;8.884;2022-12-24T12:09:22;11.10;99.90
74822;DHT22;63353;48.702;8.884;2022-12-24T12:12:33;11.20;99.90
74822;DHT22;63353;48.702;8.884;2022-12-24T12:15:20;11.20;99.90
74822;DHT22;63353;48.702;8.884;2022-12-24T12:26:44;11.20;99.90
74822;DHT22;63353;48.702;8.884;2022-12-24T12:29:22;11.20;99.90
74822;DHT22;63353;48.702;8.884;2022-12-24T12:31:58;11.30;99.90
74822;DHT22;63353;48.702;8.884;2022-12-24T12:34:54;11.20;99.90
74822;DHT22;63353;48.702;8.884;2022-12-24T12:37:38;11.10;99.90
74822;DHT22;63353;48.702;8.884;2022-12-24T12:40:21;11.20;99.90
74822;DHT22;63353;48.702;8.884;2022-12-24T12:51:44;11.20;99.90
74822;DHT22;63353;48.702;8.884;2022-12-24T12:54:34;11.20;99.90
74822;DHT22;63353;48.702;8.884;2022-12-24T12:57:17;11.10;99.90
74822;DHT22;63353;48.702;8.884;2022-12-24T12:59:50;11.00;99.90
74822;DHT22;63353;48.702;8.884;2022-12-24T13:11:10;12.10;99.90
74822;DHT22;63353;48.702;8.884;2022-12-24T13:14:01;12.50;99.90
74822;DHT22;63353;48.702;8.884;2022-12-24T13:22:16;12.20;99.90
74822;DHT22;63353;48.702;8.884;2022-12-24T13:24:51;12.00;99.90
74822;DHT22;63353;48.702;8.884;2022-12-24T13:27:28;11.90;99.90
74822;DHT22;63353;48.702;8.884;2022-12-24T13:30:34;11.90;99.90
74822;DHT22;63353;48.702;8.884;2022-12-24T13:33:00;11.90;99.90
74822;DHT22;63353;48.702;8.884;2022-12-24T13:35:29;11.90;99.90
74822;DHT22;63353;48.702;8.884;2022-12-24T13:44:15;11.30;99.90
74822;DHT22;63353;48.702;8.884;2022-12-24T13:47:19;11.20;99.90
74822;DHT22;63353;48.702;8.884;2022-12-24T13:49:50;11.20;99.90
74822;DHT22;63353;48.702;8.884;2022-12-24T13:52:26;11.10;99.90
74822;DHT22;63353;48.702;8.884;2022-12-24T13:55:12;11.10;99.90
74822;DHT22;63353;48.702;8.884;2022-12-24T13:58:00;11.20;99.90
74822;DHT22;63353;48.702;8.884;2022-12-24T14:00:33;11.20;99.90
74822;DHT22;63353;48.702;8.884;2022-12-24T14:16:09;10.90;99.90
74822;DHT22;63353;48.702;8.884;2022-12-24T14:18:41;10.90;99.90
74822;DHT22;63353;48.702;8.884;2022-12-24T14:21:20;10.80;99.90
74822;DHT22;63353;48.702;8.884;2022-12-24T14:23:57;10.90;99.90
74822;DHT22;63353;48.702;8.884;2022-12-24T14:26:29;11.30;99.90
74822;DHT22;63353;48.702;8.884;2022-12-24T14:29:06;11.60;99.90
74822;DHT22;63353;48.702;8.884;2022-12-24T14:31:49;11.60;99.90
74822;DHT22;63353;48.702;8.884;2022-12-24T14:34:16;11.30;99.90
74822;DHT22;63353;48.702;8.884;2022-12-24T14:36:42;11.00;99.90
74822;DHT22;63353;48.702;8.884;2022-12-24T14:42:11;10.80;99.90
74822;DHT22;63353;48.702;8.884;2022-12-24T14:55:56;10.20;99.90
74822;DHT22;63353;48.702;8.884;2022-12-24T15:00:59;10.10;99.90
74822;DHT22;63353;48.702;8.884;2022-12-24T15:03:28;10.00;99.90
74822;DHT22;63353;48.702;8.884;2022-12-24T15:05:58;9.90;99.90
74822;DHT22;63353;48.702;8.884;2022-12-24T15:08:31;9.90;99.90
74822;DHT22;63353;48.702;8.884;2022-12-24T15:11:03;9.80;99.90
74822;DHT22;63353;48.702;8.884;2022-12-24T15:13:48;9.70;99.90
74822;DHT22;63353;48.702;8.884;2022-12-24T15:16:30;9.70;99.90
74822;DHT22;63353;48.702;8.884;2022-12-24T15:18:59;9.60;99.90
74822;DHT22;63353;48.702;8.884;2022-12-24T15:21:35;9.60;99.90
74822;DHT22;63353;48.702;8.884;2022-12-24T15:24:03;9.50;99.90
74822;DHT22;63353;48.702;8.884;2022-12-24T15:26:31;9.60;99.90
74822;DHT22;63353;48.702;8.884;2022-12-24T15:29:00;9.50;99.90
74822;DHT22;63353;48.702;8.884;2022-12-24T15:31:27;9.40;99.90
74822;DHT22;63353;48.702;8.884;2022-12-24T15:33:55;9.30;99.90
74822;DHT22;63353;48.702;8.884;2022-12-24T15:38:54;9.20;99.90
74822;DHT22;63353;48.702;8.884;2022-12-24T15:41:36;9.20;99.90
74822;DHT22;63353;48.702;8.884;2022-12-24T15:44:31;9.10;99.90
74822;DHT22;63353;48.702;8.884;2022-12-24T15:47:03;9.00;99.90
74822;DHT22;63353;48.702;8.884;2022-12-24T15:49:34;8.90;99.90
74822;DHT22;63353;48.702;8.884;2022-12-24T15:52:09;8.90;99.90
74822;DHT22;63353;48.702;8.884;2022-12-24T15:54:35;8.80;99.90
74822;DHT22;63353;48.702;8.884;2022-12-24T15:57:13;8.80;99.90
74822;DHT22;63353;48.702;8.884;2022-12-24T15:59:49;8.70;99.90
74822;DHT22;63353;48.702;8.884;2022-12-24T16:02:41;8.70;99.90
74822;DHT22;63353;48.702;8.884;2022-12-24T16:05:28;8.60;99.90
74822;DHT22;63353;48.702;8.884;2022-12-24T16:11:19;8.40;99.90
74822;DHT22;63353;48.702;8.884;2022-12-24T16:16:47;8.40;99.90
74822;DHT22;63353;48.702;8.884;2022-12-24T16:19:30;8.30;99.90
74822;DHT22;63353;48.702;8.884;2022-12-24T16:22:01;8.20;99.90
74822;DHT22;63353;48.702;8.884;2022-12-24T16:24:50;8.30;99.90
74822;DHT22;63353;48.702;8.884;2022-12-24T16:27:19;8.30;99.90
74822;DHT22;63353;48.702;8.884;2022-12-24T16:29:48;8.30;99.90
74822;DHT22;63353;48.702;8.884;2022-12-24T16:32:32;8.40;99.90
74822;DHT22;63353;48.702;8.884;2022-12-24T16:34:58;8.40;99.90
74822;DHT22;63353;48.702;8.884;2022-12-24T16:37:24;8.50;99.90
74822;DHT22;63353;48.702;8.884;2022-12-24T16:39:49;8.60;99.90
74822;DHT22;63353;48.702;8.884;2022-12-24T16:42:15;8.60;99.90
74822;DHT22;63353;48.702;8.884;2022-12-24T16:45:03;8.60;99.90
74822;DHT22;63353;48.702;8.884;2022-12-24T16:47:33;8.60;99.90
74822;DHT22;63353;48.702;8.884;2022-12-24T16:50:02;8.70;99.90
74822;DHT22;63353;48.702;8.884;2022-12-24T16:52:29;8.60;99.90
74822;DHT22;63353;48.702;8.884;2022-12-24T16:54:56;8.60;99.90
74822;DHT22;63353;48.702;8.884;2022-12-24T16:57:24;8.60;99.90
74822;DHT22;63353;48.702;8.884;2022-12-24T16:59:51;8.50;99.90
74822;DHT22;63353;48.702;8.884;2022-12-24T17:02:19;8.40;99.90
74822;DHT22;63353;48.702;8.884;2022-12-24T17:04:45;8.40;99.90
74822;DHT22;63353;48.702;8.884;2022-12-24T17:07:17;8.20;99.90
74822;DHT22;63353;48.702;8.884;2022-12-24T17:09:43;8.10;99.90
74822;DHT22;63353;48.702;8.884;2022-12-24T17:12:12;8.10;99.90
74822;DHT22;63353;48.702;8.884;2022-12-24T17:14:39;8.20;99.90
74822;DHT22;63353;48.702;8.884;2022-12-24T17:17:06;8.20;99.90
74822;DHT22;63353;48.702;8.884;2022-12-24T17:19:32;8.10;99.90
74822;DHT22;63353;48.702;8.884;2022-12-24T17:21:58;8.10;99.90
74822;DHT22;63353;48.702;8.884;2022-12-24T17:24:24;8.00;99.90
74822;DHT22;63353;48.702;8.884;2022-12-24T17:26:49;8.10;99.90
74822;DHT22;63353;48.702;8.884;2022-12-24T17:29:15;8.10;99.90
74822;DHT22;63353;48.702;8.884;2022-12-24T17:31:40;8.10;99.90
74822;DHT22;63353;48.702;8.884;2022-12-24T17:34:07;8.40;99.90
74822;DHT22;63353;48.702;8.884;2022-12-24T17:36:33;8.40;99.90
74822;DHT22;63353;48.702;8.884;2022-12-24T17:38:59;8.40;99.90
74822;DHT22;63353;48.702;8.884;2022-12-24T17:41:24;8.30;99.90
74822;DHT22;63353;48.702;8.884;2022-12-24T17:43:50;8.40;99.90
74822;DHT22;63353;48.702;8.884;2022-12-24T17:46:19;8.40;99.90
74822;DHT22;63353;48.702;8.884;2022-12-24T17:48:46;8.30;99.90
74822;DHT22;63353;48.702;8.884;2022-12-24T17:51:13;8.40;99.90
74822;DHT22;63353;48.702;8.884;2022-12-24T17:53:43;8.30;99.90
74822;DHT22;63353;48.702;8.884;2022-12-24T17:56:10;8.30;99.90
74822;DHT22;63353;48.702;8.884;2022-12-24T17:58:40;8.30;99.90
74822;DHT22;63353;48.702;8.884;2022-12-24T18:01:13;8.40;99.90
74822;DHT22;63353;48.702;8.884;2022-12-24T18:03:43;8.40;99.90
74822;DHT22;63353;48.702;8.884;2022-12-24T18:06:16;8.30;99.90
74822;DHT22;63353;48.702;8.884;2022-12-24T18:08:46;8.30;99.90
74822;DHT22;63353;48.702;8.884;2022-12-24T18:11:39;8.20;99.90
74822;DHT22;63353;48.702;8.884;2022-12-24T18:14:04;8.20;99.90
74822;DHT22;63353;48.702;8.884;2022-12-24T18:16:39;8.10;99.90
74822;DHT22;63353;48.702;8.884;2022-12-24T18:19:07;8.00;99.90
74822;DHT22;63353;48.702;8.884;2022-12-24T18:21:38;8.00;99.90
74822;DHT22;63353;48.702;8.884;2022-12-24T18:24:04;8.00;99.90
74822;DHT22;63353;48.702;8.884;2022-12-24T18:26:30;8.00;99.90
74822;DHT22;63353;48.702;8.884;2022-12-24T18:28:58;8.00;99.90
74822;DHT22;63353;48.702;8.884;2022-12-24T18:31:25;7.90;99.90